sensor_id;sensor_type;location;lat;lon;timestamp;pressure;altitude;pressure_sealevel;temperature;humidity
55032;BME280;40928;51.076;7.950;2023-03-13T00:01:23;96129.00;;;6.69;100.00
55032;BME280;40928;51.076;7.950;2023-03-13T00:03:49;96128.56;;;6.60;100.00
55032;BME280;40928;51.076;7.950;2023-03-13T00:06:16;96118.72;;;6.73;100.00
55032;BME280;40928;51.076;7.950;2023-03-13T00:08:42;96116.28;;;6.71;100.00
55032;BME280;40928;51.076;7.950;2023-03-13T00:11:10;96111.22;;;6.69;100.00
55032;BME280;40928;51.076;7.950;2023-03-13T00:13:36;96103.41;;;6.63;100.00
55032;BME280;40928;51.076;7.950;2023-03-13T00:16:05;96092.41;;;6.71;100.00
55032;BME280;40928;51.076;7.950;2023-03-13T00:18:30;96088.13;;;6.70;100.00
55032;BME280;40928;51.076;7.950;2023-03-13T00:21:00;96083.19;;;6.74;100.00
55032;BME280;40928;51.076;7.950;2023-03-13T00:23:26;96083.78;;;6.93;100.00
55032;BME280;40928;51.076;7.950;2023-03-13T00:25:56;96069.28;;;6.83;100.00
55032;BME280;40928;51.076;7.950;2023-03-13T00:28:22;96068.78;;;6.86;100.00
55032;BME280;40928;51.076;7.950;2023-03-13T00:30:48;96060.38;;;6.90;100.00
55032;BME280;40928;51.076;7.950;2023-03-13T00:33:13;96046.88;;;6.91;100.00
55032;BME280;40928;51.076;7.950;2023-03-13T00:35:39;96058.91;;;6.82;100.00
55032;BME280;40928;51.076;7.950;2023-03-13T00:38:05;96042.09;;;6.76;100.00
55032;BME280;40928;51.076;7.950;2023-03-13T00:40:30;96030.19;;;6.79;100.00
55032;BME280;40928;51.076;7.950;2023-03-13T00:42:56;96029.97;;;6.80;100.00
55032;BME280;40928;51.076;7.950;2023-03-13T00:45:21;96025.03;;;6.72;100.00
55032;BME280;40928;51.076;7.950;2023-03-13T00:47:47;96017.31;;;6.70;100.00
55032;BME280;40928;51.076;7.950;2023-03-13T00:50:14;96000.41;;;6.60;100.00
55032;BME280;40928;51.076;7.950;2023-03-13T00:52:40;96003.97;;;6.65;100.00
55032;BME280;40928;51.076;7.950;2023-03-13T00:55:07;96005.09;;;6.69;100.00
55032;BME280;40928;51.076;7.950;2023-03-13T00:57:33;95996.00;;;6.65;100.00
55032;BME280;40928;51.076;7.950;2023-03-13T01:00:03;95989.66;;;6.66;100.00
55032;BME280;40928;51.076;7.950;2023-03-13T01:02:30;95994.16;;;6.66;100.00
55032;BME280;40928;51.076;7.950;2023-03-13T01:04:56;95990.31;;;6.74;100.00
55032;BME280;40928;51.076;7.950;2023-03-13T01:07:22;95987.25;;;6.65;100.00
55032;BME280;40928;51.076;7.950;2023-03-13T01:09:48;95986.38;;;6.59;100.00
55032;BME280;40928;51.076;7.950;2023-03-13T01:12:13;95989.22;;;6.58;100.00
55032;BME280;40928;51.076;7.950;2023-03-13T01:14:39;95986.44;;;6.64;100.00
55032;BME280;40928;51.076;7.950;2023-03-13T01:17:07;95973.50;;;6.68;100.00
55032;BME280;40928;51.076;7.950;2023-03-13T01:19:33;95971.97;;;6.72;100.00
55032;BME280;40928;51.076;7.950;2023-03-13T01:21:58;95959.47;;;6.84;100.00
55032;BME280;40928;51.076;7.950;2023-03-13T01:24:24;95959.84;;;6.76;100.00
55032;BME280;40928;51.076;7.950;2023-03-13T01:26:49;95951.56;;;6.73;100.00
55032;BME280;40928;51.076;7.950;2023-03-13T01:29:15;95943.75;;;6.66;100.00
55032;BME280;40928;51.076;7.950;2023-03-13T01:31:41;95944.00;;;6.64;100.00
55032;BME280;40928;51.076;7.950;2023-03-13T01:34:07;95941.44;;;6.69;100.00
55032;BME280;40928;51.076;7.950;2023-03-13T01:36:35;95935.09;;;6.70;100.00
55032;BME280;40928;51.076;7.950;2023-03-13T01:39:02;95936.78;;;6.77;100.00
55032;BME280;40928;51.076;7.950;2023-03-13T01:41:28;95923.81;;;6.80;100.00
55032;BME280;40928;51.076;7.950;2023-03-13T01:43:55;95924.06;;;6.79;100.00
55032;BME280;40928;51.076;7.950;2023-03-13T01:46:22;95908.13;;;6.79;100.00
55032;BME280;40928;51.076;7.950;2023-03-13T01:52:07;95900.00;;;6.85;100.00
55032;BME280;40928;51.076;7.950;2023-03-13T01:54:58;95891.97;;;6.80;100.00
55032;BME280;40928;51.076;7.950;2023-03-13T02:00:10;95884.97;;;6.74;100.00
55032;BME280;40928;51.076;7.950;2023-03-13T02:02:41;95875.97;;;6.75;100.00
55032;BME280;40928;51.076;7.950;2023-03-13T02:05:07;95870.84;;;6.68;100.00
55032;BME280;40928;51.076;7.950;2023-03-13T02:07:37;95869.50;;;6.66;100.00
55032;BME280;40928;51.076;7.950;2023-03-13T02:10:05;95867.31;;;6.63;100.00
55032;BME280;40928;51.076;7.950;2023-03-13T02:12:33;95847.38;;;6.60;100.00
55032;BME280;40928;51.076;7.950;2023-03-13T02:15:09;95849.44;;;6.75;100.00
55032;BME280;40928;51.076;7.950;2023-03-13T02:17:37;95848.25;;;6.66;100.00
55032;BME280;40928;51.076;7.950;2023-03-13T02:20:04;95828.09;;;6.65;100.00
55032;BME280;40928;51.076;7.950;2023-03-13T02:28:23;95831.78;;;6.64;100.00
55032;BME280;40928;51.076;7.950;2023-03-13T02:30:50;95804.03;;;6.72;100.00
55032;BME280;40928;51.076;7.950;2023-03-13T02:33:18;95800.25;;;6.84;100.00
55032;BME280;40928;51.076;7.950;2023-03-13T02:35:45;95803.94;;;6.83;100.00
55032;BME280;40928;51.076;7.950;2023-03-13T02:38:20;95787.06;;;6.73;100.00
55032;BME280;40928;51.076;7.950;2023-03-13T02:40:48;95789.41;;;6.69;100.00
55032;BME280;40928;51.076;7.950;2023-03-13T02:46:17;95774.13;;;6.76;100.00
55032;BME280;40928;51.076;7.950;2023-03-13T02:48:49;95766.63;;;6.73;100.00
55032;BME280;40928;51.076;7.950;2023-03-13T02:53:45;95743.78;;;6.89;100.00
55032;BME280;40928;51.076;7.950;2023-03-13T02:56:13;95749.81;;;6.84;100.00
55032;BME280;40928;51.076;7.950;2023-03-13T02:58:41;95744.75;;;6.83;100.00
55032;BME280;40928;51.076;7.950;2023-03-13T03:01:07;95748.72;;;6.80;100.00
55032;BME280;40928;51.076;7.950;2023-03-13T03:03:35;95742.91;;;6.83;100.00
55032;BME280;40928;51.076;7.950;2023-03-13T03:06:04;95744.75;;;6.83;100.00
55032;BME280;40928;51.076;7.950;2023-03-13T03:08:30;95741.88;;;6.84;100.00
55032;BME280;40928;51.076;7.950;2023-03-13T03:10:56;95745.88;;;6.87;100.00
55032;BME280;40928;51.076;7.950;2023-03-13T03:13:22;95733.66;;;6.86;100.00
55032;BME280;40928;51.076;7.950;2023-03-13T03:15:48;95743.88;;;6.99;100.00
55032;BME280;40928;51.076;7.950;2023-03-13T03:18:13;95747.84;;;6.97;100.00
55032;BME280;40928;51.076;7.950;2023-03-13T03:20:39;95746.53;;;6.99;100.00
55032;BME280;40928;51.076;7.950;2023-03-13T03:23:05;95750.31;;;7.04;100.00
55032;BME280;40928;51.076;7.950;2023-03-13T03:29:18;95729.38;;;7.07;100.00
55032;BME280;40928;51.076;7.950;2023-03-13T03:31:47;95721.00;;;7.15;100.00
55032;BME280;40928;51.076;7.950;2023-03-13T03:34:13;95701.88;;;7.19;100.00
55032;BME280;40928;51.076;7.950;2023-03-13T03:36:39;95705.56;;;7.12;100.00
55032;BME280;40928;51.076;7.950;2023-03-13T03:39:04;95708.44;;;7.11;100.00
55032;BME280;40928;51.076;7.950;2023-03-13T03:41:30;95700.84;;;7.20;100.00
55032;BME280;40928;51.076;7.950;2023-03-13T03:43:56;95701.34;;;7.16;100.00
55032;BME280;40928;51.076;7.950;2023-03-13T03:46:26;95700.75;;;7.09;100.00
55032;BME280;40928;51.076;7.950;2023-03-13T03:48:53;95712.97;;;7.10;100.00
55032;BME280;40928;51.076;7.950;2023-03-13T03:51:20;95701.75;;;7.30;100.00
55032;BME280;40928;51.076;7.950;2023-03-13T03:53:46;95700.34;;;7.23;100.00
55032;BME280;40928;51.076;7.950;2023-03-13T03:56:12;95715.78;;;7.26;100.00
55032;BME280;40928;51.076;7.950;2023-03-13T03:58:44;95720.03;;;7.27;100.00
55032;BME280;40928;51.076;7.950;2023-03-13T04:01:21;95697.28;;;7.36;100.00
55032;BME280;40928;51.076;7.950;2023-03-13T04:03:49;95683.44;;;7.29;100.00
55032;BME280;40928;51.076;7.950;2023-03-13T04:06:15;95684.78;;;7.31;100.00
55032;BME280;40928;51.076;7.950;2023-03-13T04:08:41;95697.91;;;7.43;100.00
55032;BME280;40928;51.076;7.950;2023-03-13T04:11:09;95692.03;;;7.41;100.00
55032;BME280;40928;51.076;7.950;2023-03-13T04:13:38;95703.75;;;7.45;100.00
55032;BME280;40928;51.076;7.950;2023-03-13T04:16:08;95702.66;;;7.41;100.00
55032;BME280;40928;51.076;7.950;2023-03-13T04:18:34;95689.13;;;7.43;100.00
55032;BME280;40928;51.076;7.950;2023-03-13T04:21:04;95688.91;;;7.50;100.00
55032;BME280;40928;51.076;7.950;2023-03-13T04:23:36;95691.34;;;7.51;100.00
55032;BME280;40928;51.076;7.950;2023-03-13T04:26:02;95688.13;;;7.49;100.00
55032;BME280;40928;51.076;7.950;2023-03-13T04:28:28;95683.66;;;7.55;100.00
55032;BME280;40928;51.076;7.950;2023-03-13T04:30:53;95673.59;;;7.57;100.00
55032;BME280;40928;51.076;7.950;2023-03-13T04:33:45;95675.19;;;7.58;100.00
55032;BME280;40928;51.076;7.950;2023-03-13T04:36:26;95688.47;;;7.58;100.00
55032;BME280;40928;51.076;7.950;2023-03-13T04:39:06;95669.91;;;7.63;100.00
55032;BME280;40928;51.076;7.950;2023-03-13T04:42:03;95664.34;;;7.65;100.00
55032;BME280;40928;51.076;7.950;2023-03-13T04:45:10;95660.88;;;7.64;100.00
55032;BME280;40928;51.076;7.950;2023-03-13T04:47:55;95670.44;;;7.60;100.00
55032;BME280;40928;51.076;7.950;2023-03-13T04:50:41;95649.66;;;7.57;100.00
55032;BME280;40928;51.076;7.950;2023-03-13T04:53:45;95652.06;;;7.58;100.00
55032;BME280;40928;51.076;7.950;2023-03-13T04:56:25;95644.97;;;7.69;100.00
55032;BME280;40928;51.076;7.950;2023-03-13T04:59:11;95634.63;;;7.73;100.00
55032;BME280;40928;51.076;7.950;2023-03-13T05:01:55;95634.63;;;7.73;100.00
55032;BME280;40928;51.076;7.950;2023-03-13T05:04:38;95650.28;;;7.69;100.00
55032;BME280;40928;51.076;7.950;2023-03-13T05:07:16;95632.28;;;7.76;100.00
55032;BME280;40928;51.076;7.950;2023-03-13T05:10:00;95637.81;;;7.70;100.00
55032;BME280;40928;51.076;7.950;2023-03-13T05:13:03;95619.34;;;7.85;100.00
55032;BME280;40928;51.076;7.950;2023-03-13T05:15:48;95621.16;;;7.85;100.00
55032;BME280;40928;51.076;7.950;2023-03-13T05:18:32;95619.50;;;7.73;100.00
55032;BME280;40928;51.076;7.950;2023-03-13T05:21:18;95628.59;;;7.77;100.00
55032;BME280;40928;51.076;7.950;2023-03-13T05:24:13;95622.72;;;7.75;100.00
55032;BME280;40928;51.076;7.950;2023-03-13T05:26:55;95619.28;;;7.80;100.00
55032;BME280;40928;51.076;7.950;2023-03-13T05:29:40;95606.56;;;7.87;100.00
55032;BME280;40928;51.076;7.950;2023-03-13T05:32:26;95612.66;;;7.83;100.00
55032;BME280;40928;51.076;7.950;2023-03-13T05:35:11;95610.06;;;7.93;100.00
55032;BME280;40928;51.076;7.950;2023-03-13T05:38:00;95607.94;;;7.95;100.00
55032;BME280;40928;51.076;7.950;2023-03-13T05:40:36;95603.66;;;7.89;100.00
55032;BME280;40928;51.076;7.950;2023-03-13T05:43:08;95613.75;;;7.87;100.00
55032;BME280;40928;51.076;7.950;2023-03-13T05:45:52;95605.00;;;7.91;100.00
55032;BME280;40928;51.076;7.950;2023-03-13T05:48:36;95609.22;;;7.87;100.00
55032;BME280;40928;51.076;7.950;2023-03-13T05:51:15;95598.91;;;7.91;100.00
55032;BME280;40928;51.076;7.950;2023-03-13T05:54:03;95596.56;;;8.00;100.00
55032;BME280;40928;51.076;7.950;2023-03-13T05:56:49;95604.50;;;7.95;100.00
55032;BME280;40928;51.076;7.950;2023-03-13T05:59:34;95618.63;;;8.00;100.00
55032;BME280;40928;51.076;7.950;2023-03-13T06:02:38;95589.13;;;8.02;100.00
55032;BME280;40928;51.076;7.950;2023-03-13T06:05:05;95599.31;;;8.15;100.00
55032;BME280;40928;51.076;7.950;2023-03-13T06:07:31;95606.72;;;8.13;100.00
55032;BME280;40928;51.076;7.950;2023-03-13T06:09:57;95601.13;;;8.10;100.00
55032;BME280;40928;51.076;7.950;2023-03-13T06:12:23;95594.47;;;8.07;100.00
55032;BME280;40928;51.076;7.950;2023-03-13T06:14:48;95603.53;;;8.11;100.00
55032;BME280;40928;51.076;7.950;2023-03-13T06:17:30;95592.34;;;8.09;100.00
55032;BME280;40928;51.076;7.950;2023-03-13T06:19:56;95595.59;;;8.21;100.00
55032;BME280;40928;51.076;7.950;2023-03-13T06:22:21;95595.28;;;8.13;100.00
55032;BME280;40928;51.076;7.950;2023-03-13T06:24:47;95588.16;;;8.23;100.00
55032;BME280;40928;51.076;7.950;2023-03-13T06:27:14;95565.03;;;8.24;100.00
55032;BME280;40928;51.076;7.950;2023-03-13T06:29:40;95585.50;;;8.23;100.00
55032;BME280;40928;51.076;7.950;2023-03-13T06:32:05;95586.31;;;8.24;100.00
55032;BME280;40928;51.076;7.950;2023-03-13T06:34:31;95600.41;;;8.25;100.00
55032;BME280;40928;51.076;7.950;2023-03-13T06:36:57;95600.94;;;8.27;100.00
55032;BME280;40928;51.076;7.950;2023-03-13T06:39:23;95599.06;;;8.27;100.00
55032;BME280;40928;51.076;7.950;2023-03-13T06:41:48;95587.69;;;8.37;100.00
55032;BME280;40928;51.076;7.950;2023-03-13T06:44:14;95594.63;;;8.43;100.00
55032;BME280;40928;51.076;7.950;2023-03-13T06:46:39;95590.41;;;8.47;100.00
55032;BME280;40928;51.076;7.950;2023-03-13T06:49:05;95597.03;;;8.40;100.00
55032;BME280;40928;51.076;7.950;2023-03-13T06:51:31;95600.19;;;8.36;100.00
55032;BME280;40928;51.076;7.950;2023-03-13T06:53:56;95579.53;;;8.54;100.00
55032;BME280;40928;51.076;7.950;2023-03-13T06:56:22;95601.03;;;8.47;100.00
55032;BME280;40928;51.076;7.950;2023-03-13T06:58:48;95594.41;;;8.50;100.00
55032;BME280;40928;51.076;7.950;2023-03-13T07:01:15;95597.06;;;8.50;100.00
55032;BME280;40928;51.076;7.950;2023-03-13T07:03:41;95587.50;;;8.49;100.00
55032;BME280;40928;51.076;7.950;2023-03-13T07:06:08;95585.16;;;8.68;100.00
55032;BME280;40928;51.076;7.950;2023-03-13T07:08:34;95590.78;;;8.72;100.00
55032;BME280;40928;51.076;7.950;2023-03-13T07:11:03;95602.72;;;8.64;100.00
55032;BME280;40928;51.076;7.950;2023-03-13T07:13:29;95604.53;;;8.58;100.00
55032;BME280;40928;51.076;7.950;2023-03-13T07:15:58;95609.13;;;8.73;100.00
55032;BME280;40928;51.076;7.950;2023-03-13T07:18:24;95608.03;;;8.69;100.00
55032;BME280;40928;51.076;7.950;2023-03-13T07:20:55;95617.91;;;8.74;100.00
55032;BME280;40928;51.076;7.950;2023-03-13T07:23:22;95620.34;;;8.86;100.00
55032;BME280;40928;51.076;7.950;2023-03-13T07:26:05;95612.06;;;8.77;100.00
55032;BME280;40928;51.076;7.950;2023-03-13T07:28:31;95627.53;;;8.85;100.00
55032;BME280;40928;51.076;7.950;2023-03-13T07:31:26;95615.28;;;8.89;100.00
55032;BME280;40928;51.076;7.950;2023-03-13T07:33:54;95619.00;;;8.83;100.00
55032;BME280;40928;51.076;7.950;2023-03-13T07:36:21;95610.75;;;8.84;100.00
55032;BME280;40928;51.076;7.950;2023-03-13T07:38:48;95609.16;;;8.89;100.00
55032;BME280;40928;51.076;7.950;2023-03-13T07:41:14;95613.72;;;8.98;100.00
55032;BME280;40928;51.076;7.950;2023-03-13T07:43:39;95610.00;;;9.05;100.00
55032;BME280;40928;51.076;7.950;2023-03-13T07:46:06;95610.81;;;9.05;100.00
55032;BME280;40928;51.076;7.950;2023-03-13T07:48:35;95610.81;;;9.05;100.00
55032;BME280;40928;51.076;7.950;2023-03-13T07:51:01;95622.25;;;9.06;100.00
55032;BME280;40928;51.076;7.950;2023-03-13T07:53:27;95605.22;;;9.22;100.00
55032;BME280;40928;51.076;7.950;2023-03-13T07:56:05;95618.28;;;9.24;100.00
55032;BME280;40928;51.076;7.950;2023-03-13T07:58:33;95619.91;;;9.25;100.00
55032;BME280;40928;51.076;7.950;2023-03-13T08:01:00;95614.00;;;9.28;100.00
55032;BME280;40928;51.076;7.950;2023-03-13T08:03:26;95612.72;;;9.31;100.00
55032;BME280;40928;51.076;7.950;2023-03-13T08:05:59;95611.38;;;9.38;100.00
55032;BME280;40928;51.076;7.950;2023-03-13T08:08:26;95604.19;;;9.49;100.00
55032;BME280;40928;51.076;7.950;2023-03-13T08:10:52;95607.13;;;9.53;100.00
55032;BME280;40928;51.076;7.950;2023-03-13T08:13:18;95604.72;;;9.56;100.00
55032;BME280;40928;51.076;7.950;2023-03-13T08:15:43;95603.09;;;9.55;100.00
55032;BME280;40928;51.076;7.950;2023-03-13T08:18:09;95593.25;;;9.66;100.00
55032;BME280;40928;51.076;7.950;2023-03-13T08:20:34;95590.31;;;9.73;100.00
55032;BME280;40928;51.076;7.950;2023-03-13T08:23:00;95579.91;;;9.87;100.00
55032;BME280;40928;51.076;7.950;2023-03-13T08:25:25;95574.81;;;9.90;100.00
55032;BME280;40928;51.076;7.950;2023-03-13T08:27:51;95566.81;;;9.90;100.00
55032;BME280;40928;51.076;7.950;2023-03-13T08:30:17;95564.66;;;10.03;100.00
55032;BME280;40928;51.076;7.950;2023-03-13T08:32:42;95578.22;;;10.12;100.00
55032;BME280;40928;51.076;7.950;2023-03-13T08:35:08;95572.13;;;10.11;100.00
55032;BME280;40928;51.076;7.950;2023-03-13T08:37:33;95569.97;;;10.08;100.00
55032;BME280;40928;51.076;7.950;2023-03-13T08:39:59;95559.03;;;10.10;100.00
55032;BME280;40928;51.076;7.950;2023-03-13T08:42:24;95558.22;;;10.14;100.00
55032;BME280;40928;51.076;7.950;2023-03-13T08:44:50;95559.81;;;10.20;100.00
55032;BME280;40928;51.076;7.950;2023-03-13T08:47:15;95556.59;;;10.18;100.00
55032;BME280;40928;51.076;7.950;2023-03-13T08:49:43;95556.88;;;10.17;100.00
55032;BME280;40928;51.076;7.950;2023-03-13T08:52:08;95550.47;;;10.18;100.00
55032;BME280;40928;51.076;7.950;2023-03-13T08:54:34;95555.53;;;10.14;100.00
55032;BME280;40928;51.076;7.950;2023-03-13T08:56:59;95556.06;;;10.21;100.00
55032;BME280;40928;51.076;7.950;2023-03-13T08:59:26;95545.16;;;10.18;100.00
55032;BME280;40928;51.076;7.950;2023-03-13T09:01:52;95556.56;;;10.29;100.00
55032;BME280;40928;51.076;7.950;2023-03-13T09:04:17;95541.38;;;10.24;100.00
55032;BME280;40928;51.076;7.950;2023-03-13T09:06:43;95553.94;;;10.24;100.00
55032;BME280;40928;51.076;7.950;2023-03-13T09:09:09;95557.66;;;10.23;100.00
55032;BME280;40928;51.076;7.950;2023-03-13T09:11:37;95550.19;;;10.19;100.00
55032;BME280;40928;51.076;7.950;2023-03-13T09:14:04;95544.56;;;10.21;100.00
55032;BME280;40928;51.076;7.950;2023-03-13T09:16:31;95537.34;;;10.32;100.00
55032;BME280;40928;51.076;7.950;2023-03-13T09:18:58;95552.81;;;10.35;100.00
55032;BME280;40928;51.076;7.950;2023-03-13T09:21:26;95557.63;;;10.33;100.00
55032;BME280;40928;51.076;7.950;2023-03-13T09:23:52;95549.09;;;10.41;100.00
55032;BME280;40928;51.076;7.950;2023-03-13T09:26:19;95554.97;;;10.38;100.00
55032;BME280;40928;51.076;7.950;2023-03-13T09:28:45;95556.00;;;10.32;100.00
55032;BME280;40928;51.076;7.950;2023-03-13T09:31:36;95547.53;;;10.19;100.00
55032;BME280;40928;51.076;7.950;2023-03-13T09:34:02;95529.91;;;10.24;100.00
55032;BME280;40928;51.076;7.950;2023-03-13T09:36:29;95546.19;;;10.22;100.00
55032;BME280;40928;51.076;7.950;2023-03-13T09:38:56;95537.88;;;10.29;100.00
55032;BME280;40928;51.076;7.950;2023-03-13T09:44:19;95537.59;;;10.35;100.00
55032;BME280;40928;51.076;7.950;2023-03-13T09:47:00;95526.13;;;10.40;100.00
55032;BME280;40928;51.076;7.950;2023-03-13T09:50:02;95538.69;;;10.34;100.00
55032;BME280;40928;51.076;7.950;2023-03-13T09:52:30;95526.66;;;10.42;100.00
55032;BME280;40928;51.076;7.950;2023-03-13T09:55:02;95528.22;;;10.43;100.00
55032;BME280;40928;51.076;7.950;2023-03-13T09:57:38;95514.91;;;10.43;100.00
55032;BME280;40928;51.076;7.950;2023-03-13T10:00:10;95529.84;;;10.44;100.00
55032;BME280;40928;51.076;7.950;2023-03-13T10:02:43;95531.97;;;10.47;100.00
55032;BME280;40928;51.076;7.950;2023-03-13T10:07:44;95537.28;;;10.47;100.00
55032;BME280;40928;51.076;7.950;2023-03-13T10:10:28;95545.03;;;10.49;100.00
55032;BME280;40928;51.076;7.950;2023-03-13T10:13:09;95522.09;;;10.38;100.00
55032;BME280;40928;51.076;7.950;2023-03-13T10:15:59;95535.75;;;10.41;100.00
55032;BME280;40928;51.076;7.950;2023-03-13T10:18:26;95528.50;;;10.47;100.00
55032;BME280;40928;51.076;7.950;2023-03-13T10:20:56;95544.53;;;10.42;100.00
55032;BME280;40928;51.076;7.950;2023-03-13T10:23:38;95538.13;;;10.48;100.00
55032;BME280;40928;51.076;7.950;2023-03-13T10:26:05;95538.41;;;10.36;100.00
55032;BME280;40928;51.076;7.950;2023-03-13T10:28:35;95516.03;;;10.27;100.00
55032;BME280;40928;51.076;7.950;2023-03-13T10:31:15;95523.22;;;10.26;100.00
55032;BME280;40928;51.076;7.950;2023-03-13T10:33:42;95516.28;;;10.30;100.00
55032;BME280;40928;51.076;7.950;2023-03-13T10:36:09;95511.72;;;10.31;100.00
55032;BME280;40928;51.076;7.950;2023-03-13T10:38:48;95512.56;;;10.26;100.00
55032;BME280;40928;51.076;7.950;2023-03-13T10:41:35;95511.50;;;10.27;100.00
55032;BME280;40928;51.076;7.950;2023-03-13T10:44:21;95500.50;;;10.34;100.00
55032;BME280;40928;51.076;7.950;2023-03-13T10:46:49;95491.19;;;10.31;100.00
55032;BME280;40928;51.076;7.950;2023-03-13T10:49:20;95483.16;;;10.36;100.00
55032;BME280;40928;51.076;7.950;2023-03-13T10:51:59;95494.91;;;10.41;100.00
55032;BME280;40928;51.076;7.950;2023-03-13T10:54:31;95502.66;;;10.42;100.00
55032;BME280;40928;51.076;7.950;2023-03-13T10:59:45;95488.41;;;10.57;100.00
55032;BME280;40928;51.076;7.950;2023-03-13T11:02:35;95488.09;;;10.64;100.00
55032;BME280;40928;51.076;7.950;2023-03-13T11:05:40;95470.69;;;10.72;100.00
55032;BME280;40928;51.076;7.950;2023-03-13T11:08:35;95469.84;;;10.76;100.00
55032;BME280;40928;51.076;7.950;2023-03-13T11:11:04;95480.31;;;10.73;100.00
55032;BME280;40928;51.076;7.950;2023-03-13T11:16:04;95456.03;;;10.69;100.00
55032;BME280;40928;51.076;7.950;2023-03-13T11:19:07;95466.09;;;10.77;100.00
55032;BME280;40928;51.076;7.950;2023-03-13T11:24:51;95452.56;;;11.03;100.00
55032;BME280;40928;51.076;7.950;2023-03-13T11:27:29;95439.97;;;11.09;100.00
55032;BME280;40928;51.076;7.950;2023-03-13T11:32:51;95449.81;;;11.14;100.00
55032;BME280;40928;51.076;7.950;2023-03-13T11:41:38;95434.75;;;10.93;100.00
55032;BME280;40928;51.076;7.950;2023-03-13T11:47:02;95435.28;;;10.95;100.00
55032;BME280;40928;51.076;7.950;2023-03-13T11:52:23;95427.00;;;10.92;100.00
55032;BME280;40928;51.076;7.950;2023-03-13T11:57:28;95410.75;;;10.88;100.00
55032;BME280;40928;51.076;7.950;2023-03-13T12:02:46;95421.31;;;11.04;100.00
55032;BME280;40928;51.076;7.950;2023-03-13T12:05:17;95390.00;;;11.09;100.00
55032;BME280;40928;51.076;7.950;2023-03-13T12:07:56;95395.34;;;11.09;100.00
55032;BME280;40928;51.076;7.950;2023-03-13T12:10:29;95404.75;;;11.02;100.00
55032;BME280;40928;51.076;7.950;2023-03-13T12:15:29;95378.38;;;10.95;100.00
55032;BME280;40928;51.076;7.950;2023-03-13T12:18:08;95372.78;;;10.96;100.00
55032;BME280;40928;51.076;7.950;2023-03-13T12:20:48;95367.03;;;11.08;100.00
55032;BME280;40928;51.076;7.950;2023-03-13T12:26:05;95372.72;;;11.02;100.00
55032;BME280;40928;51.076;7.950;2023-03-13T12:31:41;95354.72;;;11.12;100.00
55032;BME280;40928;51.076;7.950;2023-03-13T12:34:38;95352.34;;;11.11;100.00
55032;BME280;40928;51.076;7.950;2023-03-13T12:37:17;95355.75;;;11.17;100.00
55032;BME280;40928;51.076;7.950;2023-03-13T12:39:55;95365.00;;;11.24;100.00
55032;BME280;40928;51.076;7.950;2023-03-13T12:43:18;95347.41;;;11.23;100.00
55032;BME280;40928;51.076;7.950;2023-03-13T12:46:00;95353.34;;;11.39;100.00
55032;BME280;40928;51.076;7.950;2023-03-13T12:59:29;95339.03;;;11.30;100.00
55032;BME280;40928;51.076;7.950;2023-03-13T13:01:57;95334.47;;;11.31;100.00
55032;BME280;40928;51.076;7.950;2023-03-13T13:04:29;95328.13;;;11.26;100.00
55032;BME280;40928;51.076;7.950;2023-03-13T13:09:31;95338.56;;;11.23;100.00
55032;BME280;40928;51.076;7.950;2023-03-13T13:12:18;95310.38;;;11.36;100.00
55032;BME280;40928;51.076;7.950;2023-03-13T13:17:21;95305.50;;;11.43;100.00
55032;BME280;40928;51.076;7.950;2023-03-13T13:19:50;95302.50;;;11.45;100.00
55032;BME280;40928;51.076;7.950;2023-03-13T13:32:50;95290.09;;;11.54;100.00
55032;BME280;40928;51.076;7.950;2023-03-13T13:37:48;95283.41;;;11.76;100.00
55032;BME280;40928;51.076;7.950;2023-03-13T13:47:43;95251.69;;;11.50;100.00
55032;BME280;40928;51.076;7.950;2023-03-13T13:50:26;95260.41;;;11.55;100.00
55032;BME280;40928;51.076;7.950;2023-03-13T13:58:59;95249.06;;;11.45;100.00
55032;BME280;40928;51.076;7.950;2023-03-13T14:01:26;95241.47;;;11.33;100.00
55032;BME280;40928;51.076;7.950;2023-03-13T14:03:53;95259.44;;;11.46;100.00
55032;BME280;40928;51.076;7.950;2023-03-13T14:06:33;95253.38;;;11.40;100.00
55032;BME280;40928;51.076;7.950;2023-03-13T14:09:14;95241.41;;;11.38;100.00
55032;BME280;40928;51.076;7.950;2023-03-13T14:11:44;95231.28;;;11.35;100.00
55032;BME280;40928;51.076;7.950;2023-03-13T14:16:51;95226.69;;;11.16;100.00
55032;BME280;40928;51.076;7.950;2023-03-13T14:19:38;95220.06;;;11.14;100.00
55032;BME280;40928;51.076;7.950;2023-03-13T14:22:06;95220.84;;;11.14;100.00
55032;BME280;40928;51.076;7.950;2023-03-13T14:24:33;95215.91;;;11.26;100.00
55032;BME280;40928;51.076;7.950;2023-03-13T14:26:58;95213.66;;;11.15;100.00
55032;BME280;40928;51.076;7.950;2023-03-13T14:29:24;95210.97;;;11.15;100.00
55032;BME280;40928;51.076;7.950;2023-03-13T14:31:56;95211.84;;;11.10;100.00
55032;BME280;40928;51.076;7.950;2023-03-13T14:34:23;95196.72;;;11.00;100.00
55032;BME280;40928;51.076;7.950;2023-03-13T14:36:57;95200.34;;;11.09;100.00
55032;BME280;40928;51.076;7.950;2023-03-13T14:42:08;95198.31;;;11.01;100.00
55032;BME280;40928;51.076;7.950;2023-03-13T14:44:35;95179.19;;;10.94;100.00
55032;BME280;40928;51.076;7.950;2023-03-13T14:47:07;95189.84;;;10.94;100.00
55032;BME280;40928;51.076;7.950;2023-03-13T14:49:33;95170.03;;;11.00;100.00
55032;BME280;40928;51.076;7.950;2023-03-13T14:52:15;95167.88;;;11.02;100.00
55032;BME280;40928;51.076;7.950;2023-03-13T14:57:20;95164.75;;;10.95;100.00
55032;BME280;40928;51.076;7.950;2023-03-13T14:59:48;95151.38;;;10.95;100.00
55032;BME280;40928;51.076;7.950;2023-03-13T15:02:21;95156.00;;;11.08;100.00
55032;BME280;40928;51.076;7.950;2023-03-13T15:04:57;95150.75;;;11.03;100.00
55032;BME280;40928;51.076;7.950;2023-03-13T15:07:47;95145.06;;;11.10;100.00
55032;BME280;40928;51.076;7.950;2023-03-13T15:10:19;95145.34;;;11.08;100.00
55032;BME280;40928;51.076;7.950;2023-03-13T15:12:46;95126.56;;;11.14;100.00